Time;durP1;ratioP1;P1;durP2;ratioP2;P2;SDS_P1;SDS_P2;PMS_P1;PMS_P2;Temp;Humidity;BMP_temperature;BMP_pressure;BME280_temperature;BME280_humidity;BME280_pressure;Samples;Min_cycle;Max_cycle;Signal;HPM_P1;HPM_P2
2021/01/22 00:01:59;;;;;;;20.23;9.70;;;;;;;3.38;61.00;94264.38;5129022;27;20023;-76
2021/01/22 00:04:31;;;;;;;29.05;11.90;;;;;;;3.37;60.73;94273.31;5126960;28;20023;-76
2021/01/22 00:06:57;;;;;;;22.47;10.80;;;;;;;3.33;60.86;94274.88;5100820;28;20027;-75
2021/01/22 00:09:22;;;;;;;20.60;9.40;;;;;;;3.29;60.99;94278.31;5115964;28;20659;-76
2021/01/22 00:11:48;;;;;;;25.98;10.95;;;;;;;3.29;61.26;94286.22;5125870;28;20045;-75
2021/01/22 00:14:13;;;;;;;29.02;12.00;;;;;;;3.27;61.06;94264.59;5116854;28;20046;-75
2021/01/22 00:16:39;;;;;;;27.27;12.43;;;;;;;3.29;61.29;94265.13;5122403;28;20083;-75
2021/01/22 00:19:04;;;;;;;32.38;14.25;;;;;;;3.25;61.01;94270.13;5114833;27;20457;-75
2021/01/22 00:21:30;;;;;;;28.83;12.15;;;;;;;3.21;61.13;94259.28;5127798;28;20491;-75
2021/01/22 00:23:56;;;;;;;25.55;11.18;;;;;;;3.24;61.25;94247.47;5122537;28;20031;-75
2021/01/22 00:26:22;;;;;;;26.58;12.63;;;;;;;3.18;61.20;94257.19;5127072;28;20431;-75
2021/01/22 00:28:48;;;;;;;22.88;9.30;;;;;;;3.13;61.86;94264.25;5104109;27;20106;-75
2021/01/22 00:31:13;;;;;;;17.30;8.07;;;;;;;3.08;62.21;94253.72;5130742;27;20435;-75
2021/01/22 00:33:38;;;;;;;23.95;9.88;;;;;;;3.07;61.54;94257.38;5098354;27;20084;-75
2021/01/22 00:36:04;;;;;;;18.55;9.05;;;;;;;3.06;62.33;94276.88;5104664;27;20077;-75
2021/01/22 00:38:30;;;;;;;25.17;9.20;;;;;;;3.07;62.75;94255.53;5112400;28;20111;-75
2021/01/22 00:40:55;;;;;;;20.02;8.85;;;;;;;3.11;62.53;94258.47;5127764;27;20053;-75
2021/01/22 00:43:21;;;;;;;17.58;8.77;;;;;;;3.08;62.30;94258.97;5103152;27;20024;-75
2021/01/22 00:45:46;;;;;;;16.83;7.78;;;;;;;3.15;62.46;94270.06;5098733;28;20054;-75
2021/01/22 00:48:11;;;;;;;17.92;8.18;;;;;;;3.12;62.52;94263.47;5118028;27;20028;-75
2021/01/22 00:50:37;;;;;;;19.98;8.90;;;;;;;3.14;61.89;94263.22;5100826;27;20110;-75
2021/01/22 00:53:02;;;;;;;21.17;9.00;;;;;;;2.97;62.24;94269.47;5107325;27;20578;-75
2021/01/22 00:55:28;;;;;;;17.17;7.30;;;;;;;2.88;63.62;94270.97;5105385;27;20049;-75
2021/01/22 00:57:53;;;;;;;20.35;8.38;;;;;;;2.95;63.39;94260.22;5104164;28;20023;-75
2021/01/22 01:00:19;;;;;;;14.02;6.68;;;;;;;2.99;63.40;94250.75;5104438;27;20029;-75
2021/01/22 01:02:44;;;;;;;18.73;8.27;;;;;;;3.06;63.18;94251.34;5107578;28;20068;-76
2021/01/22 01:05:10;;;;;;;18.42;8.00;;;;;;;3.10;63.06;94251.63;5105535;27;20038;-75
2021/01/22 01:07:35;;;;;;;18.73;8.32;;;;;;;3.16;62.84;94255.88;5104543;27;20023;-74
2021/01/22 01:10:03;;;;;;;18.20;8.38;;;;;;;3.19;63.10;94250.06;5117404;27;20375;-75
2021/01/22 01:12:28;;;;;;;26.95;9.15;;;;;;;3.23;62.32;94235.34;5100638;27;20082;-75
2021/01/22 01:14:53;;;;;;;19.48;9.27;;;;;;;3.24;62.49;94239.56;5112086;27;20489;-75
2021/01/22 01:17:19;;;;;;;22.35;9.45;;;;;;;3.22;62.42;94239.03;5114760;27;20059;-75
2021/01/22 01:19:44;;;;;;;24.52;9.05;;;;;;;3.20;62.35;94227.97;5102593;27;20012;-76
2021/01/22 01:22:09;;;;;;;20.42;8.73;;;;;;;3.18;62.80;94222.16;5116732;27;20448;-76
2021/01/22 01:24:35;;;;;;;18.38;8.93;;;;;;;3.22;62.54;94234.56;5094194;28;20034;-76
2021/01/22 01:27:00;;;;;;;17.38;8.10;;;;;;;3.25;62.47;94237.72;5119065;27;20040;-76
2021/01/22 01:29:26;;;;;;;17.02;8.57;;;;;;;3.27;62.48;94240.88;5097340;28;20043;-76
2021/01/22 01:31:51;;;;;;;17.30;8.50;;;;;;;3.29;62.30;94229.03;5094010;28;20053;-76
2021/01/22 01:34:17;;;;;;;16.02;8.27;;;;;;;3.30;62.31;94225.38;5093862;28;20028;-76
2021/01/22 01:36:42;;;;;;;18.15;9.07;;;;;;;3.32;61.96;94239.06;5112279;28;20106;-76
2021/01/22 01:39:07;;;;;;;21.25;9.52;;;;;;;3.34;62.27;94212.47;5124736;27;20117;-76
2021/01/22 01:41:33;;;;;;;18.00;9.43;;;;;;;3.29;62.61;94217.72;5096949;28;20103;-76
2021/01/22 01:43:58;;;;;;;21.92;10.00;;;;;;;3.25;62.95;94201.63;5093822;28;20063;-76
2021/01/22 01:46:25;;;;;;;21.20;9.18;;;;;;;3.29;63.29;94192.16;5093980;28;20114;-76
2021/01/22 01:48:50;;;;;;;20.38;9.88;;;;;;;3.37;63.44;94207.47;5111826;28;20032;-76
2021/01/22 01:51:16;;;;;;;24.27;9.93;;;;;;;3.38;63.34;94203.00;5094080;28;20110;-76
2021/01/22 01:53:41;;;;;;;22.00;10.32;;;;;;;3.46;63.21;94206.94;5093809;28;20073;-76
2021/01/22 01:56:07;;;;;;;22.50;10.35;;;;;;;3.48;63.05;94205.66;5112458;28;20042;-76
2021/01/22 01:58:33;;;;;;;22.38;9.63;;;;;;;3.49;62.98;94203.81;5102791;27;20025;-76
2021/01/22 02:00:58;;;;;;;20.85;9.70;;;;;;;3.49;62.74;94204.59;5104613;28;20070;-76
2021/01/22 02:03:24;;;;;;;22.15;10.15;;;;;;;3.55;62.26;94205.41;5105405;27;20031;-76
2021/01/22 02:05:50;;;;;;;20.17;10.48;;;;;;;3.50;62.21;94203.56;5094485;28;20174;-76
2021/01/22 02:08:17;;;;;;;23.48;10.48;;;;;;;3.49;62.53;94203.81;5106027;27;20063;-76
2021/01/22 02:10:43;;;;;;;25.70;11.05;;;;;;;3.46;63.13;94201.69;5121890;27;20057;-76
2021/01/22 02:13:09;;;;;;;19.23;9.32;;;;;;;3.49;62.87;94195.91;5088420;28;20055;-76
2021/01/22 02:15:34;;;;;;;20.23;8.60;;;;;;;3.54;62.67;94201.16;5102669;28;20028;-76
2021/01/22 02:18:00;;;;;;;19.80;8.48;;;;;;;3.55;62.71;94200.13;5105728;28;20126;-76
2021/01/22 02:20:47;;;;;;;21.33;9.02;;;;;;;3.61;62.98;94188.56;5108784;28;20402;-76
2021/01/22 02:23:16;;;;;;;18.95;9.07;;;;;;;3.63;62.63;94185.66;5100443;28;20027;-76
2021/01/22 02:25:42;;;;;;;18.65;7.88;;;;;;;3.66;62.85;94191.19;5104386;28;20110;-76
2021/01/22 02:28:12;;;;;;;18.00;7.95;;;;;;;3.61;63.20;94185.91;5111042;28;20031;-76
2021/01/22 02:30:43;;;;;;;20.48;9.13;;;;;;;3.70;62.81;94192.25;5100402;28;20471;-77
2021/01/22 02:33:11;;;;;;;19.45;8.70;;;;;;;3.74;62.75;94198.56;5091023;28;20411;-78
2021/01/22 02:35:37;;;;;;;19.33;9.05;;;;;;;3.74;62.53;94179.34;5105296;28;20504;-78
2021/01/22 02:38:04;;;;;;;21.50;8.50;;;;;;;3.77;62.38;94176.97;5109794;28;20039;-78
2021/01/22 02:40:31;;;;;;;22.13;8.85;;;;;;;3.79;62.42;94189.91;5092048;28;20024;-78
2021/01/22 02:42:57;;;;;;;16.70;8.77;;;;;;;3.72;62.53;94181.44;5093340;28;20051;-78
2021/01/22 02:45:23;;;;;;;17.95;8.15;;;;;;;3.66;63.00;94191.19;5109594;28;20024;-78
2021/01/22 02:47:51;;;;;;;22.60;8.35;;;;;;;3.68;62.68;94186.44;5106704;28;20123;-78
2021/01/22 02:50:28;;;;;;;20.20;8.65;;;;;;;3.67;62.50;94192.78;5091985;28;20395;-78
2021/01/22 02:52:57;;;;;;;17.08;8.70;;;;;;;3.51;62.83;94183.25;5088812;28;20024;-78
2021/01/22 02:55:22;;;;;;;17.48;8.75;;;;;;;3.52;62.12;94190.09;5098938;28;20031;-78
2021/01/22 02:58:20;;;;;;;19.52;8.88;;;;;;;3.44;62.55;94186.16;5107289;28;20038;-75
2021/01/22 03:00:54;;;;;;;18.38;9.18;;;;;;;3.44;62.72;94188.78;5092533;28;20036;-75
2021/01/22 03:03:41;;;;;;;23.50;9.57;;;;;;;3.40;62.75;94185.09;5098824;28;20118;-75
2021/01/22 03:06:13;;;;;;;24.25;9.20;;;;;;;3.40;62.96;94195.63;5102612;28;20031;-75
2021/01/22 03:08:39;;;;;;;21.30;10.27;;;;;;;3.39;62.50;94194.03;5106631;28;20027;-76
2021/01/22 03:11:07;;;;;;;22.35;9.95;;;;;;;3.17;62.97;94183.69;5109184;28;20023;-75
2021/01/22 03:13:32;;;;;;;23.75;9.63;;;;;;;3.15;63.25;94202.38;5098787;28;20040;-75
2021/01/22 03:16:00;;;;;;;22.75;10.02;;;;;;;3.14;63.31;94200.81;5109349;28;20054;-74
2021/01/22 03:18:25;;;;;;;20.90;8.65;;;;;;;3.04;63.73;94179.69;5098697;28;20514;-74
2021/01/22 03:20:51;;;;;;;20.65;9.27;;;;;;;3.00;64.17;94184.66;5095360;28;20528;-75
2021/01/22 03:23:18;;;;;;;19.48;8.57;;;;;;;2.98;64.84;94181.50;5100242;28;20030;-74
2021/01/22 03:25:44;;;;;;;16.88;8.38;;;;;;;2.97;63.99;94193.09;5092648;28;20030;-75
2021/01/22 03:28:10;;;;;;;20.20;8.75;;;;;;;2.72;65.58;94192.97;5108956;28;20110;-74
2021/01/22 03:30:37;;;;;;;17.33;8.52;;;;;;;2.69;65.76;94188.22;5101895;28;20118;-74
2021/01/22 03:33:03;;;;;;;25.42;9.27;;;;;;;2.68;65.70;94181.38;5098474;28;20115;-74
2021/01/22 03:35:29;;;;;;;18.45;9.50;;;;;;;2.67;65.40;94193.75;5096917;28;20027;-75
2021/01/22 03:37:56;;;;;;;23.40;10.50;;;;;;;2.39;65.46;94194.88;5104687;28;20023;-75
2021/01/22 03:40:22;;;;;;;20.35;9.30;;;;;;;2.36;66.39;94179.59;5096323;28;20023;-75
2021/01/22 03:42:47;;;;;;;16.83;9.13;;;;;;;2.28;66.78;94177.44;5100141;28;20019;-75
2021/01/22 03:45:14;;;;;;;21.77;10.35;;;;;;;2.31;67.04;94183.00;5098250;28;20038;-75
2021/01/22 03:47:40;;;;;;;26.95;10.23;;;;;;;2.35;66.70;94191.19;5101723;28;20532;-75
2021/01/22 03:50:07;;;;;;;23.52;10.07;;;;;;;2.39;65.86;94189.63;5104383;28;20150;-75
2021/01/22 03:52:32;;;;;;;23.52;10.55;;;;;;;2.41;66.05;94201.47;5100256;28;20496;-75
2021/01/22 03:55:01;;;;;;;29.95;10.95;;;;;;;2.39;66.46;94187.00;5096379;28;20112;-75
2021/01/22 03:57:26;;;;;;;23.58;10.80;;;;;;;2.44;66.87;94194.13;5103417;28;20081;-75
2021/01/22 03:59:51;;;;;;;19.80;9.73;;;;;;;2.48;66.34;94190.72;5115769;28;20054;-75
2021/01/22 04:02:21;;;;;;;22.33;9.60;;;;;;;2.53;66.27;94196.03;5096759;28;20035;-75
2021/01/22 04:04:47;;;;;;;22.17;10.07;;;;;;;2.56;66.62;94178.94;5094995;28;20062;-75
2021/01/22 04:07:12;;;;;;;23.55;10.15;;;;;;;2.56;66.04;94189.44;5104796;28;20035;-74
2021/01/22 04:09:37;;;;;;;36.15;12.27;;;;;;;2.59;65.55;94184.47;5109518;28;20032;-75
2021/01/22 04:12:03;;;;;;;32.35;13.02;;;;;;;2.58;65.72;94190.00;5100225;28;20052;-75
2021/01/22 04:14:29;;;;;;;36.38;14.50;;;;;;;2.60;66.03;94203.69;5108429;28;20019;-74
2021/01/22 04:16:55;;;;;;;39.65;15.10;;;;;;;2.67;66.48;94216.66;5102942;28;20402;-75
2021/01/22 04:19:21;;;;;;;29.50;12.40;;;;;;;2.58;66.63;94198.66;5099900;28;20119;-75
2021/01/22 04:21:46;;;;;;;33.53;13.43;;;;;;;2.57;66.63;94197.09;5097304;28;20107;-75
2021/01/22 04:24:12;;;;;;;28.25;12.18;;;;;;;2.65;66.47;94187.16;5112647;28;20525;-75
2021/01/22 04:26:37;;;;;;;32.97;12.00;;;;;;;2.65;66.46;94190.56;5114576;27;20058;-75
2021/01/22 04:29:03;;;;;;;34.83;14.13;;;;;;;2.67;66.50;94196.38;5103282;28;20543;-75
2021/01/22 04:31:28;;;;;;;33.60;14.23;;;;;;;2.69;66.38;94188.22;5107121;28;20103;-75
2021/01/22 04:33:53;;;;;;;41.03;15.55;;;;;;;2.75;66.10;94195.09;5102980;28;20019;-75
2021/01/22 04:36:19;;;;;;;41.50;16.85;;;;;;;2.71;66.09;94196.66;5108961;28;20024;-75
2021/01/22 04:38:44;;;;;;;36.28;15.07;;;;;;;2.69;66.27;94181.13;5109039;28;20092;-75
2021/01/22 04:41:11;;;;;;;36.30;14.32;;;;;;;2.69;67.17;94193.50;5116006;27;20031;-75
2021/01/22 04:43:44;;;;;;;38.92;14.00;;;;;;;2.76;66.35;94192.19;5108809;28;20024;-74
2021/01/22 04:46:10;;;;;;;36.83;15.57;;;;;;;2.78;63.99;94181.41;5107669;28;20509;-75
2021/01/22 04:48:36;;;;;;;34.13;13.65;;;;;;;2.70;64.63;94174.78;5107126;28;20024;-75
2021/01/22 04:51:02;;;;;;;35.17;14.43;;;;;;;2.65;65.14;94169.50;5120852;27;20031;-75
2021/01/22 04:53:30;;;;;;;31.48;14.00;;;;;;;2.63;65.60;94178.72;5108498;28;20031;-75
2021/01/22 04:55:57;;;;;;;28.02;12.60;;;;;;;2.60;65.97;94175.53;5098945;28;20030;-75
2021/01/22 04:58:25;;;;;;;45.83;18.20;;;;;;;2.51;67.14;94168.38;5103006;28;20110;-75
2021/01/22 05:00:52;;;;;;;47.60;20.52;;;;;;;2.59;67.17;94181.84;5105368;28;20103;-75
2021/01/22 05:03:18;;;;;;;46.42;20.15;;;;;;;2.67;67.38;94175.31;5098618;28;20097;-75
2021/01/22 05:05:44;;;;;;;31.15;13.75;;;;;;;2.78;67.16;94191.94;5098496;28;20027;-75
2021/01/22 05:08:10;;;;;;;16.88;8.32;;;;;;;2.84;66.77;94175.13;5109719;28;20061;-75
2021/01/22 05:10:35;;;;;;;20.10;9.23;;;;;;;2.94;66.72;94169.91;5092710;28;20032;-75
2021/01/22 05:13:01;;;;;;;22.60;8.63;;;;;;;3.04;66.17;94173.63;5107748;28;20513;-75
2021/01/22 05:15:28;;;;;;;18.10;9.02;;;;;;;3.04;66.14;94171.00;5116403;27;20020;-75
2021/01/22 05:18:00;;;;;;;24.35;10.10;;;;;;;3.12;66.17;94181.03;5108688;28;20022;-75
2021/01/22 05:20:35;;;;;;;27.67;11.70;;;;;;;3.19;65.92;94176.31;5111198;28;20107;-75
2021/01/22 05:23:03;;;;;;;19.20;9.70;;;;;;;3.24;65.77;94181.59;5110965;28;20038;-75
2021/01/22 05:25:28;;;;;;;20.52;8.10;;;;;;;3.22;65.89;94178.44;5112546;28;20111;-75
2021/01/22 05:27:56;;;;;;;17.33;7.45;;;;;;;3.25;65.86;94169.22;5105253;28;20055;-76
2021/01/22 05:30:24;;;;;;;14.68;8.05;;;;;;;3.37;65.53;94183.75;5091941;28;20059;-76
2021/01/22 05:32:50;;;;;;;16.83;9.60;;;;;;;3.44;65.47;94182.69;5098675;28;20027;-76
2021/01/22 05:35:30;;;;;;;17.00;8.98;;;;;;;3.54;65.29;94174.81;5110800;28;20028;-76
2021/01/22 05:37:55;;;;;;;16.05;8.27;;;;;;;3.59;64.73;94159.81;5104043;28;20729;-76
2021/01/22 05:40:22;;;;;;;19.52;8.80;;;;;;;3.68;64.41;94169.84;5105873;28;20138;-76
2021/01/22 05:42:56;;;;;;;16.40;7.68;;;;;;;3.70;64.49;94170.38;5100633;28;20031;-76
2021/01/22 05:45:43;;;;;;;20.85;8.95;;;;;;;3.72;64.34;94169.03;5090381;28;20040;-77
2021/01/22 05:48:19;;;;;;;19.02;8.85;;;;;;;3.70;64.52;94176.41;5090696;28;20130;-77
2021/01/22 05:50:50;;;;;;;24.40;11.32;;;;;;;3.72;64.29;94163.78;5096838;28;20015;-78
2021/01/22 05:53:17;;;;;;;21.88;11.00;;;;;;;3.74;64.29;94164.31;5111005;28;20241;-78
2021/01/22 05:55:43;;;;;;;26.65;12.70;;;;;;;3.75;64.16;94168.53;5090605;28;20027;-78
2021/01/22 05:58:08;;;;;;;24.95;11.35;;;;;;;3.75;64.38;94158.00;5098050;28;20027;-78
2021/01/22 06:00:35;;;;;;;22.05;11.80;;;;;;;3.81;64.37;94156.94;5102014;28;20059;-78
2021/01/22 06:03:00;;;;;;;31.83;12.35;;;;;;;3.82;63.88;94174.31;5111873;28;20038;-78
2021/01/22 06:05:26;;;;;;;29.90;13.55;;;;;;;3.87;63.88;94170.09;5094893;27;20028;-78
2021/01/22 06:08:09;;;;;;;33.33;16.35;;;;;;;3.89;63.97;94163.53;5107448;28;20028;-79
2021/01/22 06:10:42;;;;;;;34.72;16.90;;;;;;;3.92;63.88;94159.56;5100476;28;20446;-78
2021/01/22 06:13:09;;;;;;;38.08;16.40;;;;;;;3.93;63.72;94161.16;5109166;28;20039;-76
2021/01/22 06:15:35;;;;;;;35.00;15.98;;;;;;;3.94;63.52;94168.03;5107031;28;20149;-79
2021/01/22 06:18:02;;;;;;;38.67;16.90;;;;;;;3.94;63.52;94145.06;5089959;28;20096;-79
2021/01/22 06:20:29;;;;;;;33.75;15.13;;;;;;;3.95;63.49;94162.47;5089722;28;20036;-79
2021/01/22 06:23:04;;;;;;;36.75;18.05;;;;;;;3.96;63.12;94158.00;5091267;28;20020;-79
2021/01/22 06:25:30;;;;;;;36.30;17.50;;;;;;;3.93;63.40;94161.97;5089982;28;20403;-79
2021/01/22 06:27:58;;;;;;;36.75;15.95;;;;;;;3.97;63.28;94164.88;5109493;28;20049;-78
2021/01/22 06:30:24;;;;;;;32.30;16.20;;;;;;;3.95;62.03;94159.06;5110499;28;20027;-78
2021/01/22 06:32:50;;;;;;;37.88;15.82;;;;;;;3.89;61.64;94174.09;5102658;28;20576;-78
2021/01/22 06:35:16;;;;;;;37.15;16.20;;;;;;;3.86;62.36;94164.06;5104275;28;20111;-78
2021/01/22 06:37:42;;;;;;;32.80;14.05;;;;;;;3.76;62.18;94170.09;5107739;28;20107;-80
2021/01/22 06:40:18;;;;;;;30.58;14.23;;;;;;;3.75;62.21;94163.25;5100232;28;20026;-79
2021/01/22 06:42:44;;;;;;;32.67;14.60;;;;;;;3.68;62.80;94154.81;5099911;28;20423;-78
2021/01/22 06:45:11;;;;;;;32.72;14.23;;;;;;;3.72;63.14;94153.22;5089716;28;20039;-78
2021/01/22 06:47:36;;;;;;;38.70;19.75;;;;;;;3.80;63.42;94154.56;5089485;28;20081;-77
2021/01/22 06:50:01;;;;;;;40.63;22.05;;;;;;;3.89;63.63;94162.72;5107656;27;20060;-77
2021/01/22 06:52:27;;;;;;;40.15;16.25;;;;;;;3.94;63.39;94168.03;5091133;28;20132;-78
2021/01/22 06:55:05;;;;;;;34.17;15.60;;;;;;;3.78;63.37;94160.09;5099270;28;20463;-76
2021/01/22 06:57:31;;;;;;;26.27;13.40;;;;;;;3.77;63.88;94140.06;5102656;28;20333;-78
2021/01/22 06:59:58;;;;;;;39.17;15.70;;;;;;;3.89;64.32;94145.09;5088802;28;20039;-78
2021/01/22 07:02:33;;;;;;;32.65;14.60;;;;;;;4.01;64.31;94142.19;5103154;28;20023;-78
2021/01/22 07:04:59;;;;;;;25.88;12.93;;;;;;;4.10;64.03;94135.31;5099180;28;20411;-78
2021/01/22 07:07:44;;;;;;;20.30;9.95;;;;;;;4.26;63.72;94140.56;5096653;28;20039;-78
2021/01/22 07:10:09;;;;;;;17.45;9.23;;;;;;;4.37;63.53;94136.84;5108800;28;20032;-77
2021/01/22 07:12:35;;;;;;;19.10;8.57;;;;;;;4.52;63.19;94128.91;5088887;28;20398;-77
2021/01/22 07:15:00;;;;;;;19.35;9.43;;;;;;;4.66;62.62;94117.75;5088449;28;20043;-77
2021/01/22 07:17:28;;;;;;;17.52;8.35;;;;;;;4.79;62.21;94122.50;5107509;28;20034;-76
2021/01/22 07:19:59;;;;;;;19.10;8.68;;;;;;;4.90;61.68;94124.00;5109712;28;20043;-76
2021/01/22 07:22:27;;;;;;;24.73;12.15;;;;;;;5.01;61.33;94120.28;5091518;28;20032;-76
2021/01/22 07:24:55;;;;;;;25.10;9.35;;;;;;;5.14;60.91;94132.09;5100467;28;20632;-77
2021/01/22 07:27:21;;;;;;;16.35;7.78;;;;;;;5.19;60.53;94145.31;5088318;28;20032;-77
2021/01/22 07:30:11;;;;;;;22.23;8.65;;;;;;;5.17;60.64;94150.06;5097119;28;20035;-77
2021/01/22 07:32:37;;;;;;;27.77;12.38;;;;;;;5.27;59.91;94159.00;5108484;28;20035;-77
2021/01/22 07:35:04;;;;;;;53.53;22.75;;;;;;;5.12;59.89;94162.50;5109746;28;20020;-77
2021/01/22 07:37:40;;;;;;;50.40;23.95;;;;;;;4.79;60.04;94148.91;5107203;28;20104;-76
2021/01/22 07:40:09;;;;;;;49.55;22.80;;;;;;;4.58;60.66;94158.69;5106431;28;20027;-79
2021/01/22 07:42:35;;;;;;;44.13;17.95;;;;;;;4.47;60.91;94151.88;5108456;28;20027;-76
2021/01/22 07:45:13;;;;;;;46.13;19.13;;;;;;;4.38;61.68;94159.56;5099930;28;20038;-77
2021/01/22 07:47:40;;;;;;;39.78;19.10;;;;;;;4.43;61.91;94157.69;5108509;28;20024;-77
2021/01/22 07:50:13;;;;;;;32.58;15.20;;;;;;;4.51;61.33;94137.09;5108448;28;20035;-77
2021/01/22 07:52:43;;;;;;;37.30;17.48;;;;;;;4.56;61.69;94140.50;5108209;28;20069;-77
2021/01/22 07:55:29;;;;;;;32.40;15.20;;;;;;;4.59;61.60;94118.84;5108573;28;20504;-76
2021/01/22 07:58:07;;;;;;;31.50;15.32;;;;;;;4.68;61.88;94131.50;5108836;28;20122;-76
2021/01/22 08:00:39;;;;;;;42.95;16.42;;;;;;;4.71;61.76;94120.41;5108554;28;20022;-77
2021/01/22 08:03:05;;;;;;;34.13;13.77;;;;;;;4.80;61.68;94134.63;5108402;28;20032;-76
2021/01/22 08:05:33;;;;;;;33.97;15.23;;;;;;;4.91;61.26;94125.59;5108006;28;20031;-75
2021/01/22 08:07:59;;;;;;;37.90;15.20;;;;;;;4.99;61.17;94132.19;5100698;28;20063;-75
2021/01/22 08:10:29;;;;;;;30.38;14.07;;;;;;;5.09;60.90;94112.84;5088880;28;20028;-75
2021/01/22 08:12:57;;;;;;;28.50;15.10;;;;;;;5.18;60.94;94119.16;5088198;28;20490;-75
2021/01/22 08:15:23;;;;;;;32.20;16.67;;;;;;;5.13;60.21;94138.47;5092336;28;20475;-75
2021/01/22 08:17:50;;;;;;;35.55;15.48;;;;;;;5.23;60.39;94116.47;5088033;28;20576;-75
2021/01/22 08:20:19;;;;;;;43.85;20.23;;;;;;;5.34;60.25;94136.50;5106666;28;20426;-78
2021/01/22 08:22:56;;;;;;;38.10;18.70;;;;;;;5.09;61.00;94140.06;5109674;28;20019;-78
2021/01/22 08:25:35;;;;;;;42.53;20.33;;;;;;;5.13;61.08;94127.09;5087555;28;20376;-75
2021/01/22 08:28:01;;;;;;;38.00;18.02;;;;;;;5.20;60.99;94138.94;5103398;28;20024;-76
2021/01/22 08:30:27;;;;;;;34.10;16.38;;;;;;;5.28;60.54;94137.59;5106823;28;20112;-78
2021/01/22 08:32:54;;;;;;;39.58;16.08;;;;;;;5.42;60.00;94135.13;5087860;28;20020;-76
2021/01/22 08:35:24;;;;;;;36.08;16.65;;;;;;;5.61;59.42;94138.69;5116983;28;20110;-76
2021/01/22 08:37:51;;;;;;;42.15;15.65;;;;;;;5.76;58.71;94137.84;5096753;28;20542;-76
2021/01/22 08:40:17;;;;;;;29.35;14.95;;;;;;;5.96;58.54;94134.28;5105897;28;20016;-77
2021/01/22 08:42:59;;;;;;;32.03;14.18;;;;;;;6.01;58.44;94117.56;5087671;28;20028;-77
2021/01/22 08:45:25;;;;;;;33.03;14.25;;;;;;;6.15;57.86;94128.31;5106734;28;20028;-77
2021/01/22 08:47:51;;;;;;;24.15;12.30;;;;;;;6.22;57.43;94111.00;5108827;28;20028;-76
2021/01/22 08:50:17;;;;;;;18.25;9.63;;;;;;;6.34;56.86;94115.94;5101014;28;20063;-78
2021/01/22 08:52:43;;;;;;;24.75;9.57;;;;;;;6.39;57.23;94093.91;5106734;28;20034;-76
2021/01/22 08:55:18;;;;;;;15.85;8.38;;;;;;;6.47;56.51;94103.09;5096536;28;20028;-76
2021/01/22 08:58:05;;;;;;;19.48;9.75;;;;;;;6.51;56.11;94110.19;5112172;28;20020;-77
2021/01/22 09:00:31;;;;;;;19.52;9.25;;;;;;;6.70;55.62;94101.53;5110650;28;20143;-77
2021/01/22 09:02:57;;;;;;;20.98;9.02;;;;;;;6.85;55.07;94093.41;5091027;28;20532;-77
2021/01/22 09:05:25;;;;;;;28.90;9.35;;;;;;;6.97;54.54;94099.09;5090801;28;20085;-80
2021/01/22 09:08:19;;;;;;;16.80;7.78;;;;;;;7.02;54.41;94091.09;5091007;28;20073;-78
2021/01/22 09:10:50;;;;;;;20.73;7.43;;;;;;;7.14;54.26;94098.59;5100579;28;20044;-75
2021/01/22 09:13:21;;;;;;;24.08;8.10;;;;;;;7.30;53.20;94101.84;5096218;28;20518;-76
2021/01/22 09:15:49;;;;;;;16.73;9.00;;;;;;;7.36;52.91;94099.91;5091963;28;20059;-76
2021/01/22 09:18:22;;;;;;;13.07;6.88;;;;;;;7.31;52.79;94087.53;5090758;28;20047;-76
2021/01/22 09:21:05;;;;;;;18.08;7.50;;;;;;;7.33;52.85;94089.91;5105140;28;20422;-77
2021/01/22 09:23:31;;;;;;;17.17;7.05;;;;;;;7.40;52.65;94096.41;5090306;28;20073;-76
2021/01/22 09:25:57;;;;;;;14.15;6.25;;;;;;;7.41;52.21;94091.91;5091976;28;20483;-75
2021/01/22 09:28:23;;;;;;;12.25;5.72;;;;;;;7.39;52.20;94081.56;5091483;28;20024;-75
2021/01/22 09:30:49;;;;;;;15.80;5.82;;;;;;;7.52;52.61;94093.31;5090531;28;20046;-74
2021/01/22 09:33:14;;;;;;;12.57;6.53;;;;;;;7.71;52.20;94084.56;5108797;28;20035;-75
2021/01/22 09:35:40;;;;;;;16.65;6.55;;;;;;;7.88;51.17;94070.78;5112318;28;20049;-76
2021/01/22 09:38:06;;;;;;;11.70;5.95;;;;;;;7.99;51.34;94061.56;5110757;28;20024;-76
2021/01/22 09:40:31;;;;;;;26.90;11.77;;;;;;;8.20;50.88;94060.13;5111790;28;20110;-76
2021/01/22 09:43:00;;;;;;;14.90;5.72;;;;;;;8.35;49.89;94047.66;5104949;28;20101;-76
2021/01/22 09:45:25;;;;;;;27.33;13.07;;;;;;;8.33;50.17;94063.09;5106340;28;20081;-76
2021/01/22 09:47:51;;;;;;;26.75;11.52;;;;;;;8.39;50.68;94059.28;5092023;28;20035;-76
2021/01/22 09:50:18;;;;;;;17.35;8.70;;;;;;;8.45;49.87;94036.88;5097734;28;20072;-75
2021/01/22 09:52:44;;;;;;;12.73;6.57;;;;;;;8.54;49.72;94039.63;5109948;28;20122;-74
2021/01/22 09:55:17;;;;;;;19.38;6.40;;;;;;;8.72;48.50;94033.41;5111326;27;20120;-75
2021/01/22 09:57:43;;;;;;;13.80;6.78;;;;;;;8.77;48.48;94027.19;5090973;28;20039;-76
2021/01/22 10:00:11;;;;;;;14.32;6.07;;;;;;;8.86;48.60;94011.38;5088017;28;20024;-76
2021/01/22 10:02:37;;;;;;;18.80;7.82;;;;;;;8.95;48.45;93988.28;5086667;28;20020;-76
2021/01/22 10:05:04;;;;;;;22.00;9.40;;;;;;;9.03;48.25;94001.66;5088217;28;20487;-76
2021/01/22 10:07:29;;;;;;;10.25;5.10;;;;;;;9.15;47.79;94008.34;5088191;28;20062;-75
2021/01/22 10:09:54;;;;;;;12.63;5.45;;;;;;;9.19;47.29;93996.78;5087686;28;20103;-76
2021/01/22 10:12:20;;;;;;;19.45;6.57;;;;;;;8.96;48.27;94001.28;5088428;28;20040;-75
2021/01/22 10:14:46;;;;;;;10.65;5.75;;;;;;;9.08;47.94;94003.44;5098330;28;20115;-76
2021/01/22 10:17:12;;;;;;;9.77;5.70;;;;;;;9.24;47.26;94004.69;5111235;28;20011;-75
2021/01/22 10:19:37;;;;;;;36.90;6.22;;;;;;;9.11;47.45;93994.06;5111087;28;20076;-76
2021/01/22 10:22:03;;;;;;;13.25;6.07;;;;;;;9.08;46.69;94003.44;5109932;28;20027;-78
2021/01/22 10:24:28;;;;;;;10.27;5.28;;;;;;;9.07;47.17;94004.50;5109979;28;20053;-78
2021/01/22 10:26:54;;;;;;;18.10;7.07;;;;;;;9.12;47.20;94014.25;5097801;28;20027;-78
2021/01/22 10:29:20;;;;;;;16.52;8.48;;;;;;;9.10;47.57;93997.81;5089577;28;20463;-78
2021/01/22 10:31:45;;;;;;;24.77;9.73;;;;;;;9.00;47.63;94004.94;5108315;28;20023;-77
2021/01/22 10:34:11;;;;;;;21.52;7.70;;;;;;;9.01;47.61;93990.53;5110733;28;20115;-77
2021/01/22 10:36:37;;;;;;;23.90;10.05;;;;;;;9.09;47.19;93999.69;5093951;28;20447;-78
2021/01/22 10:39:04;;;;;;;15.43;8.27;;;;;;;9.18;46.95;93991.78;5098917;28;20384;-77
2021/01/22 10:41:30;;;;;;;19.65;9.05;;;;;;;9.19;46.94;93990.69;5103403;28;20433;-77
2021/01/22 10:43:56;;;;;;;24.15;8.13;;;;;;;9.18;46.94;93992.56;5109392;28;20030;-77
2021/01/22 10:46:21;;;;;;;23.20;9.00;;;;;;;9.30;47.37;93973.44;5115994;27;20519;-78
2021/01/22 10:48:46;;;;;;;30.08;10.75;;;;;;;9.49;47.41;93980.44;5096058;28;20024;-77
2021/01/22 10:51:12;;;;;;;15.60;7.65;;;;;;;9.45;46.37;93974.94;5098501;28;20118;-77
2021/01/22 10:53:37;;;;;;;28.20;9.20;;;;;;;9.59;46.10;93974.88;5110484;28;20024;-77
2021/01/22 10:56:03;;;;;;;25.33;9.60;;;;;;;9.76;45.49;93961.66;5098968;28;20015;-78
2021/01/22 10:58:28;;;;;;;39.35;11.50;;;;;;;9.87;45.75;93940.91;5109815;28;20068;-78
2021/01/22 11:00:55;;;;;;;23.60;9.68;;;;;;;9.96;44.77;93930.28;5105306;28;20043;-78
2021/01/22 11:03:21;;;;;;;23.25;10.43;;;;;;;10.07;44.53;93928.91;5091401;28;20120;-77
2021/01/22 11:05:46;;;;;;;28.60;10.13;;;;;;;10.18;43.75;93932.88;5107859;28;20450;-72
2021/01/22 11:08:12;;;;;;;23.48;10.43;;;;;;;10.20;43.99;93930.69;5099837;28;20127;-72
2021/01/22 11:10:37;;;;;;;24.92;11.40;;;;;;;10.28;44.37;93901.72;5103518;28;20024;-72
2021/01/22 11:13:03;;;;;;;23.85;12.23;;;;;;;10.21;44.55;93902.19;5101812;28;20090;-72
2021/01/22 11:15:30;;;;;;;28.58;13.65;;;;;;;10.15;44.38;93912.19;5089826;28;20111;-72
2021/01/22 11:17:56;;;;;;;26.63;13.95;;;;;;;10.31;44.59;93893.94;5095756;28;20576;-72
2021/01/22 11:20:22;;;;;;;35.65;13.95;;;;;;;10.44;44.16;93892.22;5119503;27;20594;-72
2021/01/22 11:22:48;;;;;;;34.50;15.75;;;;;;;10.47;44.25;93904.94;5101205;28;20070;-73
2021/01/22 11:25:14;;;;;;;32.83;14.00;;;;;;;10.51;43.59;93897.13;5099683;28;20484;-72
2021/01/22 11:27:41;;;;;;;32.20;14.60;;;;;;;10.56;44.19;93888.97;5088231;28;20027;-72
2021/01/22 11:30:07;;;;;;;45.10;14.90;;;;;;;10.64;43.76;93875.66;5094446;28;20110;-73
2021/01/22 11:32:33;;;;;;;36.90;14.13;;;;;;;10.71;43.20;93869.06;5108922;28;20039;-72